Terminal Aerodrome Forecast
Issued by NWS

Current Version | Previous Version | Text Only | Print | Product List | Glossary On
Versions: 1 2 3 4 5 6 7 8 9 10 11 12 13 14 15 16 17 18 19 20 21 22 23 24 25
000
FTUS43 KAPX 201128
TAFAPN
TAF
KAPN 201128Z 2012/2112 13006KT 1/4SM FG OVC002
     FM201500 11004KT 3/4SM BR OVC004
     FM201900 09005KT 2SM BR OVC008
     FM210000 VRB03KT 2SM BR VCSH OVC003
     FM210200 VRB03KT 1 1/2SM -SHRA BR OVC007
     FM210500 00000KT 3/4SM BR OVC003=

USA.gov is the U.S. government's official web portal to all federal, state and local government web resources and services.